Time;durP1;ratioP1;P1;durP2;ratioP2;P2;SDS_P1;SDS_P2;PMS_P1;PMS_P2;Temp;Humidity;BMP_temperature;BMP_pressure;BME280_temperature;BME280_humidity;BME280_pressure;Samples;Min_cycle;Max_cycle;Signal;HPM_P1;HPM_P2
2023/01/14 00:02:17;;;;;;;2.17;0.87;;;;;;;19.08;58.25;100815.94;5110018;28;20233;-59
2023/01/14 00:04:43;;;;;;;2.47;0.80;;;;;;;19.06;57.84;100824.88;5084704;28;20207;-59
2023/01/14 00:07:08;;;;;;;2.97;0.97;;;;;;;19.05;57.79;100830.97;5096595;28;20193;-59
2023/01/14 00:09:34;;;;;;;2.43;0.80;;;;;;;19.08;57.84;100833.09;5098681;28;20183;-59
2023/01/14 00:11:59;;;;;;;1.90;0.80;;;;;;;19.04;57.99;100835.88;5074468;28;20607;-59
2023/01/14 00:14:29;;;;;;;2.20;0.80;;;;;;;19.07;57.73;100828.59;5076539;28;20201;-59
2023/01/14 00:16:54;;;;;;;6.20;1.10;;;;;;;19.09;57.86;100817.59;5076442;28;20231;-59
2023/01/14 00:19:20;;;;;;;3.83;0.90;;;;;;;19.07;57.85;100815.09;5094820;28;20884;-59
2023/01/14 00:21:46;;;;;;;2.43;0.80;;;;;;;19.04;57.85;100807.25;5090916;28;20224;-59
2023/01/14 00:24:13;;;;;;;2.27;0.87;;;;;;;19.06;57.75;100818.34;5094268;28;20186;-59
2023/01/14 00:26:39;;;;;;;1.70;0.70;;;;;;;19.04;58.05;100818.72;5091830;28;20274;-59
2023/01/14 00:29:04;;;;;;;2.10;0.80;;;;;;;19.04;58.12;100817.88;5107639;28;20428;-58
2023/01/14 00:31:29;;;;;;;3.10;0.90;;;;;;;19.05;57.91;100814.66;5114863;28;20184;-59
2023/01/14 00:33:56;;;;;;;2.37;1.00;;;;;;;19.05;57.95;100823.22;5114644;28;20633;-59
2023/01/14 00:36:22;;;;;;;2.57;0.70;;;;;;;19.06;58.10;100819.16;5081679;28;20194;-58
2023/01/14 00:38:48;;;;;;;1.63;0.70;;;;;;;19.02;58.20;100823.97;5073888;28;20401;-59
2023/01/14 00:41:16;;;;;;;2.37;0.77;;;;;;;19.06;57.80;100822.03;5073776;28;20785;-59
2023/01/14 00:43:43;;;;;;;2.27;0.80;;;;;;;19.03;58.06;100825.66;5068618;28;20187;-59
2023/01/14 00:46:11;;;;;;;1.83;0.67;;;;;;;19.07;57.91;100829.41;5093866;28;20467;-59
2023/01/14 00:48:37;;;;;;;2.53;0.67;;;;;;;19.02;58.09;100838.28;5071702;28;20540;-58
2023/01/14 00:51:02;;;;;;;2.07;0.70;;;;;;;19.06;58.06;100844.91;5094053;28;20759;-59
2023/01/14 00:53:28;;;;;;;2.67;0.90;;;;;;;19.03;57.94;100839.94;5092054;28;20201;-59
2023/01/14 00:55:54;;;;;;;4.07;1.07;;;;;;;19.04;58.06;100837.91;5074611;28;20273;-59
2023/01/14 00:58:19;;;;;;;1.50;0.63;;;;;;;19.03;57.99;100833.38;5072807;28;20312;-59
2023/01/14 01:00:45;;;;;;;2.57;0.80;;;;;;;19.04;57.76;100835.03;5074923;28;20207;-59
2023/01/14 01:03:11;;;;;;;1.93;0.77;;;;;;;19.01;57.80;100830.09;5058456;28;20158;-58
2023/01/14 01:05:36;;;;;;;1.97;0.70;;;;;;;18.99;57.89;100830.44;5089100;28;20205;-59
2023/01/14 01:08:03;;;;;;;2.20;0.70;;;;;;;19.00;58.22;100825.53;5073328;28;20182;-58
2023/01/14 01:10:28;;;;;;;2.23;0.83;;;;;;;19.01;58.14;100830.09;5072866;28;20578;-59
2023/01/14 01:12:54;;;;;;;3.10;0.70;;;;;;;19.01;58.06;100835.81;5075846;28;20472;-59
2023/01/14 01:15:19;;;;;;;3.77;0.97;;;;;;;19.03;57.85;100844.84;5073383;28;20160;-59
2023/01/14 01:17:45;;;;;;;1.50;0.50;;;;;;;19.00;58.27;100832.09;5060894;28;20187;-59
2023/01/14 01:20:10;;;;;;;2.60;0.80;;;;;;;18.98;58.01;100834.50;5073261;28;20187;-59
2023/01/14 01:22:36;;;;;;;2.10;0.97;;;;;;;18.99;58.20;100830.44;5073450;28;20159;-59
2023/01/14 01:25:01;;;;;;;1.60;0.60;;;;;;;18.95;58.19;100820.94;5074643;28;20190;-57
2023/01/14 01:27:27;;;;;;;1.60;0.70;;;;;;;19.00;57.94;100822.66;5054098;28;20166;-57
2023/01/14 01:29:53;;;;;;;1.60;0.60;;;;;;;18.97;58.04;100824.25;5093266;28;20189;-57
2023/01/14 01:32:19;;;;;;;2.00;0.80;;;;;;;18.99;57.92;100813.28;5089594;28;20177;-57
2023/01/14 01:34:44;;;;;;;3.20;0.90;;;;;;;18.98;57.94;100807.91;5092024;28;20408;-57
2023/01/14 01:37:10;;;;;;;2.27;0.73;;;;;;;18.96;58.31;100805.41;5076785;28;20194;-57
2023/01/14 01:39:35;;;;;;;1.50;0.80;;;;;;;18.92;58.17;100798.78;5072390;28;20175;-57
2023/01/14 01:42:01;;;;;;;1.63;0.63;;;;;;;18.94;58.10;100795.56;5075108;28;20178;-57
2023/01/14 01:44:26;;;;;;;1.77;0.67;;;;;;;18.97;58.11;100801.34;5072973;28;20555;-57
2023/01/14 01:46:51;;;;;;;2.90;0.90;;;;;;;18.97;58.15;100807.06;5075783;28;20280;-57
2023/01/14 01:49:23;;;;;;;1.87;0.70;;;;;;;18.93;58.05;100800.47;5077090;28;20244;-57
2023/01/14 01:51:55;;;;;;;1.60;0.67;;;;;;;18.94;58.00;100793.53;5055527;28;20946;-57
2023/01/14 01:54:24;;;;;;;1.40;0.60;;;;;;;18.96;58.02;100793.16;5057798;28;20575;-56
2023/01/14 01:56:49;;;;;;;1.97;0.77;;;;;;;18.92;58.18;100801.63;5084029;28;20440;-58
2023/01/14 01:59:20;;;;;;;1.70;0.80;;;;;;;18.96;58.17;100796.03;5070621;28;20485;-57
2023/01/14 02:01:46;;;;;;;4.03;0.90;;;;;;;18.93;58.16;100800.47;5081028;28;20242;-61
2023/01/14 02:04:11;;;;;;;2.00;0.67;;;;;;;18.92;58.34;100800.81;5065883;28;20460;-62
2023/01/14 02:06:37;;;;;;;1.87;0.90;;;;;;;18.91;58.05;100802.84;5091896;28;20202;-62
2023/01/14 02:09:02;;;;;;;2.03;0.70;;;;;;;18.96;58.11;100811.16;5072298;28;20175;-61
2023/01/14 02:11:46;;;;;;;3.13;0.80;;;;;;;18.94;58.06;100813.56;5077045;28;20179;-61
2023/01/14 02:14:27;;;;;;;1.73;0.73;;;;;;;18.92;57.98;100815.94;5086315;28;20205;-61
2023/01/14 02:16:59;;;;;;;3.90;0.77;;;;;;;18.92;58.21;100813.09;5091786;28;20483;-62
2023/01/14 02:20:03;;;;;;;1.90;0.70;;;;;;;18.93;58.15;100800.47;5092184;28;20423;-62
2023/01/14 02:22:59;;;;;;;1.80;0.63;;;;;;;18.90;58.24;100797.50;5053768;28;20985;-62
2023/01/14 02:25:40;;;;;;;2.87;0.87;;;;;;;18.89;58.11;100795.84;5071065;28;20504;-62
2023/01/14 02:28:26;;;;;;;2.10;0.70;;;;;;;18.88;58.38;100780.72;5073452;28;20478;-62
2023/01/14 02:31:15;;;;;;;1.57;0.67;;;;;;;18.87;57.98;100770.44;5052854;28;20493;-61
2023/01/14 02:33:58;;;;;;;1.47;0.60;;;;;;;18.88;58.10;100780.72;5071029;28;20468;-62
2023/01/14 02:36:44;;;;;;;1.70;0.63;;;;;;;18.88;58.16;100780.72;5092650;28;20403;-61
2023/01/14 02:39:25;;;;;;;1.83;0.83;;;;;;;18.88;57.97;100774.16;5067767;28;20519;-60
2023/01/14 02:44:43;;;;;;;8.40;1.80;;;;;;;18.46;51.65;100781.69;5086856;28;20455;-61
2023/01/14 02:47:12;;;;;;;5.13;1.83;;;;;;;18.43;54.68;100780.38;5084937;28;20477;-61
2023/01/14 02:49:43;;;;;;;4.30;1.43;;;;;;;18.56;53.59;100766.81;5048241;28;20449;-62
2023/01/14 02:52:09;;;;;;;18.43;2.77;;;;;;;18.72;52.57;100764.78;5051621;28;20398;-60
2023/01/14 02:54:34;;;;;;;8.07;1.60;;;;;;;18.73;53.61;100757.84;5087416;28;20460;-62
2023/01/14 02:57:17;;;;;;;18.57;2.13;;;;;;;18.72;53.38;100762.72;5089652;28;20163;-62
2023/01/14 02:59:57;;;;;;;15.17;1.70;;;;;;;18.67;53.10;100768.72;5054999;28;20560;-61
2023/01/14 03:02:50;;;;;;;18.93;1.77;;;;;;;18.72;53.84;100753.34;5048473;28;20444;-62
2023/01/14 03:05:34;;;;;;;6.57;1.97;;;;;;;18.70;53.99;100736.53;5075241;28;20429;-62
2023/01/14 03:08:04;;;;;;;6.67;1.80;;;;;;;18.75;54.12;100730.53;5090880;28;20871;-62
2023/01/14 03:10:40;;;;;;;10.20;1.50;;;;;;;18.77;54.63;100727.31;5065485;28;20448;-62
2023/01/14 03:13:15;;;;;;;5.33;2.53;;;;;;;18.74;54.84;100723.16;5068310;28;20445;-61
2023/01/14 03:15:48;;;;;;;7.03;1.93;;;;;;;18.76;54.85;100722.78;5064912;28;20433;-60
2023/01/14 03:18:25;;;;;;;4.43;1.10;;;;;;;18.75;54.83;100701.09;5052614;28;20425;-61
2023/01/14 03:21:02;;;;;;;6.23;1.60;;;;;;;18.79;54.88;100708.56;5072663;28;20496;-61
2023/01/14 03:23:28;;;;;;;5.73;1.40;;;;;;;18.81;55.49;100711.06;5088044;28;20424;-61
2023/01/14 03:25:53;;;;;;;6.50;1.60;;;;;;;18.78;55.43;100706.91;5055334;28;20496;-61
2023/01/14 03:28:21;;;;;;;7.40;1.40;;;;;;;18.76;55.36;100702.78;5086984;28;20557;-62
2023/01/14 03:30:53;;;;;;;8.73;1.93;;;;;;;18.75;55.42;100713.38;5069252;28;20179;-61
2023/01/14 03:33:23;;;;;;;4.33;1.40;;;;;;;18.76;55.74;100700.72;5071364;28;20834;-62
2023/01/14 03:35:48;;;;;;;4.83;1.20;;;;;;;18.74;55.61;100694.56;5070443;28;20820;-62
2023/01/14 03:38:20;;;;;;;8.70;2.07;;;;;;;18.74;56.00;100696.56;5072970;28;20434;-62
2023/01/14 03:40:47;;;;;;;5.53;1.60;;;;;;;18.70;56.06;100687.91;5062652;28;20210;-61
2023/01/14 03:43:18;;;;;;;5.70;1.70;;;;;;;18.71;56.15;100698.16;5051089;28;20997;-61
2023/01/14 03:45:45;;;;;;;4.53;1.70;;;;;;;18.72;55.90;100691.22;5070514;28;20518;-62
2023/01/14 03:48:10;;;;;;;4.83;1.47;;;;;;;18.73;56.35;100684.31;5084447;28;20516;-61
2023/01/14 03:51:02;;;;;;;5.57;1.40;;;;;;;18.71;56.53;100683.03;5066394;28;21013;-62
2023/01/14 03:53:49;;;;;;;5.47;1.10;;;;;;;18.69;56.27;100680.53;5076807;28;20186;-61
2023/01/14 03:56:35;;;;;;;5.50;1.40;;;;;;;18.75;56.34;100672.47;5059870;28;20441;-62
2023/01/14 03:59:04;;;;;;;5.50;1.20;;;;;;;18.71;56.84;100671.59;5054410;28;20429;-61
2023/01/14 04:01:34;;;;;;;5.03;1.13;;;;;;;18.71;56.33;100671.59;5052628;28;20542;-61
2023/01/14 04:04:00;;;;;;;6.73;1.40;;;;;;;18.70;56.56;100667.06;5080246;28;20414;-61
2023/01/14 04:06:25;;;;;;;6.87;1.30;;;;;;;18.72;56.61;100662.63;5069130;28;20414;-62
2023/01/14 04:08:51;;;;;;;5.50;1.20;;;;;;;18.70;56.59;100658.47;5082464;28;20182;-62
2023/01/14 04:11:16;;;;;;;4.57;1.30;;;;;;;18.69;56.71;100662.53;5042100;28;20184;-62
2023/01/14 04:16:26;;;;;;;4.37;1.27;;;;;;;18.72;56.61;100645.47;5110749;28;20201;-61
2023/01/14 04:18:51;;;;;;;4.30;1.20;;;;;;;18.69;56.84;100653.97;5092936;28;20897;-61
2023/01/14 04:21:16;;;;;;;5.70;1.33;;;;;;;18.69;57.03;100651.94;5072428;28;20199;-62
2023/01/14 04:23:42;;;;;;;4.40;1.27;;;;;;;18.69;56.87;100646.22;5070500;28;20159;-62
2023/01/14 04:26:08;;;;;;;3.13;1.43;;;;;;;18.69;56.84;100637.66;5070422;28;20182;-62
2023/01/14 04:28:33;;;;;;;5.13;1.30;;;;;;;18.68;57.00;100644.56;5072050;28;20190;-62
2023/01/14 04:30:58;;;;;;;3.30;1.30;;;;;;;18.70;57.21;100642.16;5091058;28;20224;-61
2023/01/14 04:33:24;;;;;;;5.03;1.70;;;;;;;18.68;57.11;100635.16;5106423;28;20183;-62
2023/01/14 04:35:49;;;;;;;5.83;1.40;;;;;;;18.69;57.21;100642.53;5072150;28;20202;-62
2023/01/14 04:38:16;;;;;;;3.63;1.20;;;;;;;18.68;56.86;100633.13;5070183;28;20700;-61
2023/01/14 04:40:41;;;;;;;4.00;0.97;;;;;;;18.69;56.92;100634.78;5071201;28;20211;-62
2023/01/14 04:43:07;;;;;;;8.30;2.23;;;;;;;18.66;57.12;100631.84;5076295;28;20914;-61
2023/01/14 04:45:32;;;;;;;4.40;1.30;;;;;;;18.67;57.29;100637.16;5073633;28;20198;-61
2023/01/14 04:47:57;;;;;;;6.43;1.60;;;;;;;18.68;56.94;100636.00;5086059;28;20174;-62
2023/01/14 04:50:33;;;;;;;6.60;1.70;;;;;;;18.71;57.12;100640.94;5076985;28;20179;-62
2023/01/14 04:53:15;;;;;;;5.03;1.13;;;;;;;18.70;57.06;100642.16;5073883;28;20519;-61
2023/01/14 04:55:41;;;;;;;4.63;1.40;;;;;;;18.70;57.17;100641.31;5074811;28;20445;-62
2023/01/14 04:58:08;;;;;;;2.80;0.97;;;;;;;18.68;57.21;100632.28;5073358;28;20417;-62
2023/01/14 05:00:34;;;;;;;4.23;1.30;;;;;;;18.67;57.35;100634.31;5055715;28;20460;-62
2023/01/14 05:03:02;;;;;;;3.80;1.20;;;;;;;18.70;57.15;100633.56;5073397;28;20414;-62
2023/01/14 05:05:27;;;;;;;2.17;0.97;;;;;;;18.69;57.38;100622.50;5075766;28;20199;-62
2023/01/14 05:07:53;;;;;;;3.07;1.07;;;;;;;18.71;57.31;100626.66;5074294;28;20892;-61
2023/01/14 05:10:18;;;;;;;5.20;1.13;;;;;;;18.67;57.10;100631.44;5093750;28;20259;-62
2023/01/14 05:12:55;;;;;;;4.10;0.90;;;;;;;18.67;57.09;100619.19;5092361;28;20158;-61
2023/01/14 05:15:30;;;;;;;2.53;1.10;;;;;;;18.68;57.25;100613.13;5092074;28;20200;-62
2023/01/14 05:17:56;;;;;;;3.43;1.17;;;;;;;18.71;57.16;100620.94;5093242;28;20422;-62
2023/01/14 05:20:23;;;;;;;3.43;1.20;;;;;;;18.69;57.44;100605.34;5093398;28;20943;-61
2023/01/14 05:22:48;;;;;;;4.10;1.50;;;;;;;18.67;57.33;100594.28;5087749;28;20215;-61
2023/01/14 05:25:14;;;;;;;10.13;1.20;;;;;;;18.68;57.33;100598.81;5072992;28;20420;-61
2023/01/14 05:27:39;;;;;;;2.40;0.83;;;;;;;18.69;57.18;100594.75;5073937;28;20323;-62
2023/01/14 05:30:05;;;;;;;2.97;1.20;;;;;;;18.68;57.17;100593.09;5093103;28;20537;-60
2023/01/14 05:32:31;;;;;;;3.77;1.47;;;;;;;18.69;57.08;100596.75;5093343;28;20529;-61
2023/01/14 05:34:56;;;;;;;4.07;1.40;;;;;;;18.69;57.51;100591.03;5079771;28;20433;-61
2023/01/14 05:37:22;;;;;;;2.93;1.10;;;;;;;18.67;57.41;100597.13;5072923;28;20170;-61
2023/01/14 05:39:47;;;;;;;3.03;1.00;;;;;;;18.71;57.46;100598.03;5072884;28;20159;-61
2023/01/14 05:47:41;;;;;;;6.33;0.80;;;;;;;18.66;57.58;100583.25;5102583;28;20475;-62
2023/01/14 05:50:09;;;;;;;1.80;0.73;;;;;;;18.69;57.39;100583.31;5078516;28;20433;-61
2023/01/14 05:52:34;;;;;;;2.50;0.93;;;;;;;18.71;57.57;100580.88;5050518;28;20174;-62
2023/01/14 05:55:00;;;;;;;3.27;1.00;;;;;;;18.70;57.54;100581.25;5088584;28;20931;-62
2023/01/14 05:57:25;;;;;;;2.20;0.90;;;;;;;18.69;57.30;100576.75;5092823;28;20182;-61
2023/01/14 05:59:51;;;;;;;4.13;1.17;;;;;;;18.69;57.38;100576.75;5092497;28;20174;-61
2023/01/14 06:07:44;;;;;;;6.13;1.20;;;;;;;18.68;57.48;100563.66;5074686;28;20895;-62
2023/01/14 06:10:10;;;;;;;2.57;0.90;;;;;;;18.69;57.30;100577.59;5072343;28;20417;-61
2023/01/14 06:15:19;;;;;;;2.43;1.00;;;;;;;18.68;57.40;100567.34;5100697;28;20197;-61
2023/01/14 06:17:46;;;;;;;3.40;1.20;;;;;;;18.75;57.73;100567.50;5091838;28;20443;-61
2023/01/14 06:20:12;;;;;;;4.43;1.30;;;;;;;18.71;57.53;100563.72;5111593;28;20193;-61
2023/01/14 06:22:38;;;;;;;2.10;0.90;;;;;;;18.71;57.25;100558.00;5087650;28;20534;-61
2023/01/14 06:25:04;;;;;;;2.93;0.80;;;;;;;18.68;57.53;100555.91;5070770;28;20425;-60
2023/01/14 06:27:29;;;;;;;3.20;1.17;;;;;;;18.70;57.48;100553.50;5071942;28;20163;-61
2023/01/14 06:29:55;;;;;;;2.83;1.20;;;;;;;18.69;57.59;100536.72;5110897;28;20174;-61
2023/01/14 06:32:20;;;;;;;2.33;0.80;;;;;;;18.68;57.76;100533.03;5079921;28;20190;-61
2023/01/14 06:34:45;;;;;;;2.73;1.33;;;;;;;18.70;57.56;100522.03;5071608;28;20680;-61
2023/01/14 06:37:11;;;;;;;3.03;1.17;;;;;;;18.72;57.51;100515.94;5076309;28;20179;-61
2023/01/14 06:39:36;;;;;;;4.47;1.50;;;;;;;18.71;57.15;100505.72;5091878;28;20170;-62
2023/01/14 06:42:02;;;;;;;3.20;1.17;;;;;;;18.70;57.64;100504.03;5091947;28;20182;-62
2023/01/14 06:44:27;;;;;;;2.63;0.90;;;;;;;18.69;57.49;100497.50;5091583;28;20251;-61
2023/01/14 06:46:54;;;;;;;2.70;0.90;;;;;;;18.70;57.29;100507.75;5084717;28;20230;-61
2023/01/14 06:49:19;;;;;;;2.57;1.00;;;;;;;18.70;57.83;100504.88;5091681;28;20261;-61
2023/01/14 06:51:45;;;;;;;3.00;1.33;;;;;;;18.72;57.64;100510.22;5088388;28;20456;-61
2023/01/14 06:54:12;;;;;;;2.20;0.97;;;;;;;18.69;57.78;100497.50;5071703;28;20152;-60
2023/01/14 06:56:37;;;;;;;2.53;1.00;;;;;;;18.70;57.43;100496.31;5071495;28;20178;-62
2023/01/14 06:59:03;;;;;;;1.90;0.70;;;;;;;18.72;57.67;100501.66;5073587;28;20888;-61
2023/01/14 07:01:28;;;;;;;3.47;1.30;;;;;;;18.72;57.26;100501.66;5071170;28;20211;-62
2023/01/14 07:03:54;;;;;;;3.37;1.00;;;;;;;18.68;57.62;100501.59;5073249;28;20612;-62
2023/01/14 07:06:19;;;;;;;4.20;1.70;;;;;;;18.72;57.58;100491.00;5071114;28;20195;-61
2023/01/14 07:08:45;;;;;;;3.47;1.20;;;;;;;18.70;57.57;100486.88;5053262;28;20175;-62
2023/01/14 07:11:12;;;;;;;2.40;0.97;;;;;;;18.70;57.35;100469.72;5073757;28;20179;-62
2023/01/14 07:13:37;;;;;;;2.20;0.90;;;;;;;18.71;57.59;100477.13;5070851;28;20182;-62
2023/01/14 07:16:03;;;;;;;1.87;0.90;;;;;;;18.67;57.61;100477.03;5071161;28;20409;-61
2023/01/14 07:18:28;;;;;;;3.90;1.17;;;;;;;18.73;57.91;100472.69;5070280;28;20226;-62
2023/01/14 07:20:57;;;;;;;2.80;1.23;;;;;;;18.72;57.47;100473.06;5073669;28;20203;-61
2023/01/14 07:23:23;;;;;;;4.17;1.00;;;;;;;18.70;57.52;100469.72;5070981;28;20171;-61
2023/01/14 07:25:48;;;;;;;3.00;1.20;;;;;;;18.72;57.60;100476.72;5073451;28;21224;-61
2023/01/14 07:28:14;;;;;;;2.60;0.90;;;;;;;18.71;57.33;100472.22;5070914;28;20170;-62
2023/01/14 07:30:39;;;;;;;4.60;1.30;;;;;;;18.71;57.66;100477.94;5070855;28;20171;-62
2023/01/14 07:33:05;;;;;;;2.50;0.90;;;;;;;18.72;57.39;100473.84;5084098;28;20657;-61
2023/01/14 07:35:30;;;;;;;2.47;0.97;;;;;;;18.71;57.30;100483.66;5091072;28;20170;-62
2023/01/14 07:37:56;;;;;;;2.43;1.03;;;;;;;18.74;57.50;100465.75;5086288;28;20229;-62
2023/01/14 07:40:22;;;;;;;2.33;0.90;;;;;;;18.73;57.75;100475.53;5083650;28;20230;-61
2023/01/14 07:42:47;;;;;;;2.73;0.80;;;;;;;18.66;57.46;100455.34;5091851;28;20170;-61
2023/01/14 07:45:13;;;;;;;2.43;1.30;;;;;;;18.68;57.57;100461.53;5077124;28;20182;-61
2023/01/14 07:47:38;;;;;;;2.17;0.90;;;;;;;18.69;57.74;100457.47;5090271;28;20234;-60
2023/01/14 07:50:04;;;;;;;3.80;1.13;;;;;;;18.72;57.63;100453.84;5071299;28;20197;-61
2023/01/14 07:52:30;;;;;;;2.60;1.13;;;;;;;18.72;57.62;100445.25;5090914;28;20174;-61
2023/01/14 07:54:55;;;;;;;2.23;1.00;;;;;;;18.69;57.70;100451.75;5079108;28;20186;-61
2023/01/14 07:57:22;;;;;;;3.13;1.37;;;;;;;18.69;57.57;100454.63;5090954;28;20201;-61
2023/01/14 07:59:47;;;;;;;2.53;1.10;;;;;;;18.73;57.74;100438.34;5081760;28;20828;-61
2023/01/14 08:02:12;;;;;;;1.77;0.70;;;;;;;18.75;57.26;100441.66;5070509;28;20206;-61
2023/01/14 08:04:38;;;;;;;2.83;1.20;;;;;;;18.75;57.23;100438.78;5076390;28;20217;-61
2023/01/14 08:07:07;;;;;;;2.73;1.23;;;;;;;18.74;57.49;100439.16;5087508;28;20261;-61
2023/01/14 08:09:33;;;;;;;2.77;0.87;;;;;;;18.75;57.59;100435.94;5090715;28;20208;-61
2023/01/14 08:11:58;;;;;;;3.60;1.30;;;;;;;18.72;57.56;100442.41;5077139;28;20932;-62
2023/01/14 08:14:24;;;;;;;2.57;0.93;;;;;;;18.73;57.33;100437.53;5070448;28;20574;-61
2023/01/14 08:16:49;;;;;;;1.90;0.70;;;;;;;18.74;57.53;100437.16;5101884;28;20543;-61
2023/01/14 08:19:17;;;;;;;2.40;1.00;;;;;;;18.74;57.82;100440.00;5076609;28;20721;-62
2023/01/14 08:21:42;;;;;;;3.03;1.20;;;;;;;18.74;57.48;100436.31;5084962;28;20206;-61
2023/01/14 08:24:08;;;;;;;2.73;1.30;;;;;;;18.70;57.48;100427.66;5098451;28;20457;-61
2023/01/14 08:26:33;;;;;;;3.60;1.10;;;;;;;18.73;57.49;100431.78;5114595;28;20190;-62
2023/01/14 08:28:59;;;;;;;2.37;1.00;;;;;;;18.71;57.51;100426.44;5115105;28;20174;-61
2023/01/14 08:31:24;;;;;;;3.13;1.07;;;;;;;18.70;57.74;100418.25;5089705;28;20191;-61
2023/01/14 08:33:50;;;;;;;3.20;1.13;;;;;;;18.75;57.72;100417.94;5055692;28;20228;-61
2023/01/14 08:36:17;;;;;;;2.47;1.00;;;;;;;18.71;57.64;100417.88;5073104;28;20180;-61
2023/01/14 08:38:48;;;;;;;2.80;1.10;;;;;;;18.70;57.46;100413.38;5060386;28;20531;-61
2023/01/14 08:41:14;;;;;;;2.00;1.00;;;;;;;18.73;57.62;100404.03;5093103;28;20564;-60
2023/01/14 08:43:40;;;;;;;1.97;0.80;;;;;;;18.72;57.61;100410.94;5090765;28;20479;-61
2023/01/14 08:46:07;;;;;;;1.87;1.10;;;;;;;18.72;57.81;100404.41;5072716;28;20547;-61
2023/01/14 08:48:33;;;;;;;4.80;1.13;;;;;;;18.75;57.78;100410.19;5090781;28;20197;-61
2023/01/14 08:51:01;;;;;;;2.17;1.00;;;;;;;18.72;57.65;100402.34;5094200;28;20404;-61
2023/01/14 08:53:27;;;;;;;2.10;1.00;;;;;;;18.76;57.60;100394.69;5086857;28;20179;-62
2023/01/14 08:55:58;;;;;;;2.50;0.93;;;;;;;18.73;57.50;100389.75;5073362;28;20429;-61
2023/01/14 08:58:24;;;;;;;2.43;0.80;;;;;;;18.78;57.64;100395.16;5073979;28;20772;-60
2023/01/14 09:00:49;;;;;;;3.47;0.80;;;;;;;18.75;57.39;100395.91;5087255;28;20509;-62
2023/01/14 09:03:15;;;;;;;2.73;1.10;;;;;;;18.73;57.64;100394.63;5073085;28;20796;-61
2023/01/14 09:05:40;;;;;;;4.43;1.20;;;;;;;18.76;57.67;100388.16;5075442;28;20210;-61
2023/01/14 09:19:03;;;;;;;1.70;0.80;;;;;;;18.72;57.88;100372.94;5075288;28;20436;-61
2023/01/14 09:21:28;;;;;;;2.80;1.10;;;;;;;18.74;57.71;100377.09;5072888;28;20465;-61
2023/01/14 09:23:54;;;;;;;2.63;1.00;;;;;;;18.75;57.58;100355.84;5075700;28;20255;-61
2023/01/14 09:26:20;;;;;;;1.93;0.87;;;;;;;18.74;57.72;100339.06;5072932;28;20194;-62
2023/01/14 09:28:46;;;;;;;2.03;0.93;;;;;;;18.72;57.51;100325.16;5072610;28;20633;-61
2023/01/14 09:31:11;;;;;;;4.07;1.33;;;;;;;18.74;57.64;100334.19;5075363;28;20467;-61
2023/01/14 09:33:36;;;;;;;2.60;0.83;;;;;;;18.80;57.60;100329.78;5076417;28;20554;-62
2023/01/14 09:36:02;;;;;;;2.57;1.10;;;;;;;18.79;57.51;100331.00;5089518;28;20211;-61
2023/01/14 09:38:28;;;;;;;2.03;0.87;;;;;;;18.78;57.49;100334.25;5093253;28;20189;-61
2023/01/14 09:40:54;;;;;;;2.33;0.90;;;;;;;18.76;57.44;100325.22;5093304;28;20194;-61
2023/01/14 09:43:19;;;;;;;3.90;1.13;;;;;;;18.75;57.75;100324.38;5076358;28;20189;-62
2023/01/14 09:45:45;;;;;;;7.63;1.20;;;;;;;18.77;57.64;100324.81;5092164;28;20226;-64
2023/01/14 09:48:19;;;;;;;3.70;1.23;;;;;;;18.75;57.65;100324.38;5054604;28;20273;-63
2023/01/14 09:50:44;;;;;;;2.20;1.00;;;;;;;18.80;58.21;100326.09;5092473;28;20886;-63
2023/01/14 09:53:38;;;;;;;3.30;1.23;;;;;;;18.78;57.50;100325.66;5094917;28;20416;-62
2023/01/14 09:56:24;;;;;;;1.90;0.87;;;;;;;18.80;57.70;100315.50;5092175;28;20253;-63
2023/01/14 09:58:54;;;;;;;3.63;1.17;;;;;;;18.77;57.60;100306.84;5107568;28;20432;-64
2023/01/14 10:01:25;;;;;;;1.93;0.80;;;;;;;18.77;57.88;100304.81;5078108;28;20552;-63
2023/01/14 10:04:27;;;;;;;2.30;1.00;;;;;;;18.80;57.65;100306.91;5089516;28;20451;-63
2023/01/14 10:06:53;;;;;;;3.60;1.00;;;;;;;18.75;57.68;100292.94;5091685;28;20424;-63
2023/01/14 10:09:26;;;;;;;2.30;0.97;;;;;;;18.78;57.95;100294.19;5094115;28;20458;-63
2023/01/14 10:11:51;;;;;;;1.93;0.80;;;;;;;18.76;57.81;100285.19;5058190;28;20411;-63
2023/01/14 10:14:19;;;;;;;3.77;0.90;;;;;;;18.81;58.03;100277.09;5093885;28;20809;-63
2023/01/14 10:16:46;;;;;;;15.67;1.97;;;;;;;18.79;57.65;100265.22;5092310;28;20181;-64
2023/01/14 10:19:14;;;;;;;1.70;0.70;;;;;;;18.81;57.39;100270.56;5078971;28;21171;-63
2023/01/14 10:21:46;;;;;;;3.17;1.13;;;;;;;18.78;57.65;100263.56;5053967;28;20511;-63
2023/01/14 10:24:13;;;;;;;2.70;1.23;;;;;;;18.78;57.85;100255.00;5063199;28;20444;-64
2023/01/14 10:26:38;;;;;;;2.40;0.90;;;;;;;18.77;57.37;100259.03;5071855;28;20405;-64
2023/01/14 10:29:16;;;;;;;3.87;0.90;;;;;;;18.79;57.57;100245.19;5090338;28;20792;-63
2023/01/14 10:31:45;;;;;;;2.20;1.03;;;;;;;18.81;57.60;100231.31;5076796;28;20289;-64
2023/01/14 10:34:10;;;;;;;2.03;0.90;;;;;;;18.79;57.45;100221.47;5073547;28;20443;-63
2023/01/14 10:36:37;;;;;;;2.43;1.10;;;;;;;18.81;57.74;100219.88;5056493;28;20424;-64
2023/01/14 10:39:03;;;;;;;3.00;1.07;;;;;;;18.79;57.34;100216.59;5091625;28;20197;-63
2023/01/14 10:44:33;;;;;;;2.43;1.10;;;;;;;18.79;57.76;100205.16;5071553;28;20412;-64
2023/01/14 10:47:26;;;;;;;4.30;1.10;;;;;;;18.81;57.59;100197.00;5056439;28;20484;-63
2023/01/14 10:49:57;;;;;;;2.20;0.90;;;;;;;18.79;57.51;100199.44;5072277;28;20424;-63
2023/01/14 10:52:26;;;;;;;2.53;1.20;;;;;;;18.79;57.52;100188.00;5068222;28;20589;-64
2023/01/14 10:55:10;;;;;;;2.70;1.10;;;;;;;18.83;57.48;100188.88;5090692;28;20423;-63
2023/01/14 10:57:40;;;;;;;2.60;1.07;;;;;;;18.83;57.47;100177.44;5080313;28;20516;-63
2023/01/14 11:00:09;;;;;;;2.37;1.00;;;;;;;18.82;57.48;100172.09;5079213;28;20457;-63
2023/01/14 11:02:35;;;;;;;2.20;1.00;;;;;;;18.81;57.19;100161.88;5080232;28;20471;-63
2023/01/14 11:05:24;;;;;;;4.10;1.00;;;;;;;18.77;57.68;100155.28;5072446;28;20455;-63
2023/01/14 11:07:50;;;;;;;1.90;0.87;;;;;;;18.79;57.66;100153.69;5074897;28;20420;-63
2023/01/14 11:10:18;;;;;;;2.60;1.00;;;;;;;18.72;57.36;100136.41;5058006;28;21030;-63
2023/01/14 11:12:43;;;;;;;6.07;2.10;;;;;;;18.42;55.07;100126.94;5077537;28;20668;-63
2023/01/14 11:15:35;;;;;;;5.90;1.50;;;;;;;18.30;55.18;100124.28;5070684;28;20425;-63
2023/01/14 11:18:19;;;;;;;15.43;2.30;;;;;;;18.39;52.83;100116.31;5080892;28;20189;-63
2023/01/14 11:21:15;;;;;;;6.57;2.10;;;;;;;18.44;51.72;100112.28;5084133;28;20805;-63
2023/01/14 11:24:20;;;;;;;11.63;2.07;;;;;;;18.64;52.40;100116.66;5083013;28;20515;-63
2023/01/14 11:26:45;;;;;;;17.33;3.17;;;;;;;18.86;53.88;100096.56;4966561;28;20977;-63
2023/01/14 11:29:22;;;;;;;10.17;2.50;;;;;;;18.88;54.68;100099.88;5055377;28;20451;-63
2023/01/14 11:31:48;;;;;;;25.23;3.10;;;;;;;18.84;54.66;100087.56;5070291;28;20532;-63
2023/01/14 11:34:26;;;;;;;9.53;3.03;;;;;;;18.77;54.53;100076.00;5082094;28;20814;-63
2023/01/14 11:37:00;;;;;;;9.97;3.07;;;;;;;18.78;54.53;100066.25;5084393;28;20428;-63
2023/01/14 11:39:25;;;;;;;19.40;2.20;;;;;;;18.81;53.85;100059.72;5052423;28;20557;-63
2023/01/14 11:41:51;;;;;;;6.47;1.60;;;;;;;18.82;54.52;100058.50;5073380;28;20958;-63
2023/01/14 11:44:21;;;;;;;7.37;2.37;;;;;;;18.80;54.65;100035.19;5081089;28;20186;-63
2023/01/14 11:47:01;;;;;;;7.77;2.20;;;;;;;18.80;54.73;100023.75;5085547;28;20235;-63
2023/01/14 11:49:28;;;;;;;5.80;2.23;;;;;;;18.81;54.52;100021.72;5071109;28;20428;-64
2023/01/14 11:52:04;;;;;;;4.13;1.40;;;;;;;18.93;54.09;100018.59;5085101;28;20436;-63
2023/01/14 11:54:37;;;;;;;14.10;2.23;;;;;;;19.14;55.05;100021.69;5081289;28;20435;-63
2023/01/14 11:57:04;;;;;;;8.80;2.00;;;;;;;19.43;54.97;100013.06;5074890;28;20548;-64
2023/01/14 11:59:31;;;;;;;5.80;1.73;;;;;;;19.38;55.44;100013.44;5079958;28;20432;-63
2023/01/14 12:02:02;;;;;;;13.73;2.97;;;;;;;19.27;56.30;100009.59;5100619;28;20835;-63
2023/01/14 12:04:34;;;;;;;8.13;1.87;;;;;;;19.24;56.40;99998.13;5070431;28;20467;-64
2023/01/14 12:07:02;;;;;;;10.30;2.87;;;;;;;19.25;56.90;99985.47;5111784;28;20419;-62